createdAt,value
2023-05-21T00:00:21.349Z,23.71
2023-05-21T00:01:21.389Z,23.71
2023-05-21T00:02:21.459Z,23.72
2023-05-21T00:03:21.521Z,23.72
2023-05-21T00:04:21.495Z,23.71
2023-05-21T00:05:21.589Z,23.72
2023-05-21T00:06:21.663Z,23.72
2023-05-21T00:07:21.626Z,23.71
2023-05-21T00:08:21.691Z,23.72
2023-05-21T00:09:21.737Z,23.73
2023-05-21T00:10:21.772Z,23.72
2023-05-21T00:11:21.789Z,23.72
2023-05-21T00:12:21.872Z,23.72
2023-05-21T00:13:21.913Z,23.72
2023-05-21T00:14:21.937Z,23.71
2023-05-21T00:15:22.002Z,23.72
2023-05-21T00:16:22.085Z,23.72
2023-05-21T00:17:22.075Z,23.72
2023-05-21T00:18:22.104Z,23.72
2023-05-21T00:19:22.205Z,23.72
2023-05-21T00:20:22.237Z,23.72
2023-05-21T00:21:22.236Z,23.72
2023-05-21T00:22:22.291Z,23.72
2023-05-21T00:23:22.326Z,23.72
2023-05-21T00:24:22.361Z,23.72
2023-05-21T00:25:22.435Z,23.72
2023-05-21T00:26:22.452Z,23.71
2023-05-21T00:27:22.484Z,23.71
2023-05-21T00:28:22.534Z,23.72
2023-05-21T00:29:22.606Z,23.72
2023-05-21T00:30:22.635Z,23.71
2023-05-21T00:31:22.781Z,23.72
2023-05-21T00:32:22.717Z,23.71
2023-05-21T00:33:22.757Z,23.71
2023-05-21T00:34:22.777Z,23.71
2023-05-21T00:35:22.829Z,23.71
2023-05-21T00:36:22.872Z,23.71
2023-05-21T00:37:22.875Z,23.70
2023-05-21T00:38:22.962Z,23.72
2023-05-21T00:39:23.022Z,23.71
2023-05-21T00:40:23.052Z,23.71
2023-05-21T00:41:23.081Z,23.71
2023-05-21T00:42:23.130Z,23.71
2023-05-21T00:43:23.154Z,23.70
2023-05-21T00:44:23.237Z,23.71
2023-05-21T00:45:23.307Z,23.71
2023-05-21T00:46:23.361Z,23.71
2023-05-21T00:47:23.399Z,23.71
2023-05-21T00:48:23.432Z,23.71
2023-05-21T00:49:23.502Z,23.71
2023-05-21T00:50:23.564Z,23.70
2023-05-21T00:51:23.563Z,23.70
2023-05-21T00:52:23.640Z,23.70
2023-05-21T00:53:23.680Z,23.71
2023-05-21T00:54:23.701Z,23.71
2023-05-21T00:55:23.747Z,23.71
2023-05-21T00:56:23.809Z,23.71
2023-05-21T00:57:23.861Z,23.71
2023-05-21T00:58:23.905Z,23.71
2023-05-21T00:59:23.939Z,23.71
2023-05-21T01:00:24.045Z,23.71
2023-05-21T01:01:24.086Z,23.71
2023-05-21T01:02:24.461Z,23.72
2023-05-21T01:03:24.327Z,23.71
2023-05-21T01:04:24.181Z,23.72
2023-05-21T01:05:24.230Z,23.72
2023-05-21T01:06:24.259Z,23.71
2023-05-21T01:07:24.322Z,23.72
2023-05-21T01:08:24.391Z,23.71
2023-05-21T01:09:24.440Z,23.72
2023-05-21T01:10:24.526Z,23.72
2023-05-21T01:11:24.537Z,23.72
2023-05-21T01:12:24.630Z,23.71
2023-05-21T01:13:24.639Z,23.72
2023-05-21T01:14:24.680Z,23.72
2023-05-21T01:15:24.733Z,23.71
2023-05-21T01:16:24.841Z,23.72
2023-05-21T01:17:24.880Z,23.72
2023-05-21T01:18:24.920Z,23.71
2023-05-21T01:19:24.963Z,23.70
2023-05-21T01:20:24.973Z,23.71
2023-05-21T01:21:25.019Z,23.71
2023-05-21T01:22:25.209Z,23.71
2023-05-21T01:23:25.109Z,23.70
2023-05-21T01:24:25.161Z,23.71
2023-05-21T01:25:25.279Z,23.70
2023-05-21T01:26:25.271Z,23.71
2023-05-21T01:27:25.354Z,23.71
2023-05-21T01:28:25.417Z,23.70
2023-05-21T01:29:25.468Z,23.70
2023-05-21T01:30:25.510Z,23.71
2023-05-21T01:31:25.573Z,23.71
2023-05-21T01:32:25.603Z,23.71
2023-05-21T01:33:25.678Z,23.71
2023-05-21T01:34:25.686Z,23.70
2023-05-21T01:35:25.755Z,23.71
2023-05-21T01:36:25.814Z,23.71
2023-05-21T01:37:25.835Z,23.71
2023-05-21T01:38:25.903Z,23.71
2023-05-21T01:39:25.953Z,23.70
2023-05-21T01:40:26.005Z,23.70
2023-05-21T01:41:26.070Z,23.71
2023-05-21T01:42:26.123Z,23.70
2023-05-21T01:43:26.172Z,23.71
2023-05-21T01:44:26.199Z,23.71
2023-05-21T01:45:26.235Z,23.70
2023-05-21T01:46:26.349Z,23.70
2023-05-21T01:47:26.360Z,23.71
2023-05-21T01:48:26.364Z,23.70
2023-05-21T01:49:26.401Z,23.70
2023-05-21T01:50:26.495Z,23.70
2023-05-21T01:51:26.509Z,23.70
2023-05-21T01:52:26.581Z,23.70
2023-05-21T01:53:26.657Z,23.69
2023-05-21T01:54:26.718Z,23.69
2023-05-21T01:55:26.757Z,23.70
2023-05-21T01:56:26.829Z,23.70
2023-05-21T01:57:26.876Z,23.69
2023-05-21T01:58:26.934Z,23.69
2023-05-21T01:59:27.005Z,23.69
2023-05-21T02:00:27.165Z,23.69
2023-05-21T02:01:27.147Z,23.68
2023-05-21T02:02:27.187Z,23.69
2023-05-21T02:03:27.281Z,23.68
2023-05-21T02:04:27.235Z,23.69
2023-05-21T02:05:27.317Z,23.68
2023-05-21T02:06:27.340Z,23.69
2023-05-21T02:07:27.379Z,23.69
2023-05-21T02:08:27.424Z,23.69
2023-05-21T02:09:27.483Z,23.68
2023-05-21T02:10:27.576Z,23.68
2023-05-21T02:11:27.571Z,23.69
2023-05-21T02:12:27.638Z,23.69
2023-05-21T02:13:27.677Z,23.69
2023-05-21T02:14:27.734Z,23.68
2023-05-21T02:15:27.790Z,23.69
2023-05-21T02:16:27.898Z,23.68
2023-05-21T02:17:27.883Z,23.68
2023-05-21T02:18:27.914Z,23.69
2023-05-21T02:19:28.013Z,23.68
2023-05-21T02:20:28.026Z,23.68
2023-05-21T02:21:28.084Z,23.67
2023-05-21T02:22:28.127Z,23.68
2023-05-21T02:23:28.155Z,23.68
2023-05-21T02:24:28.218Z,23.68
2023-05-21T02:25:28.269Z,23.68
2023-05-21T02:26:28.338Z,23.68
2023-05-21T02:27:28.371Z,23.68
2023-05-21T02:28:28.424Z,23.68
2023-05-21T02:29:28.447Z,23.68
2023-05-21T02:30:28.516Z,23.68
2023-05-21T02:31:28.568Z,23.68
2023-05-21T02:32:28.639Z,23.68
2023-05-21T02:33:28.662Z,23.68
2023-05-21T02:34:28.764Z,23.67
2023-05-21T02:35:28.732Z,23.68
2023-05-21T02:36:28.844Z,23.67
2023-05-21T02:37:28.860Z,23.67
2023-05-21T02:38:28.895Z,23.67
2023-05-21T02:39:28.933Z,23.67
2023-05-21T02:40:28.991Z,23.66
2023-05-21T02:41:29.028Z,23.67
2023-05-21T02:42:29.095Z,23.67
2023-05-21T02:43:29.142Z,23.66
2023-05-21T02:44:29.181Z,23.66
2023-05-21T02:45:29.380Z,23.67
2023-05-21T02:46:29.462Z,23.66
2023-05-21T02:47:29.397Z,23.67
2023-05-21T02:48:29.376Z,23.66
2023-05-21T02:49:29.418Z,23.67
2023-05-21T02:50:29.478Z,23.66
2023-05-21T02:51:29.526Z,23.66
2023-05-21T02:52:29.584Z,23.66
2023-05-21T02:53:29.602Z,23.66
2023-05-21T02:54:30.188Z,23.67
2023-05-21T02:55:29.699Z,23.67
2023-05-21T02:56:29.749Z,23.67
2023-05-21T02:57:29.793Z,23.67
2023-05-21T02:58:29.870Z,23.67
2023-05-21T02:59:29.881Z,23.67
2023-05-21T03:00:29.942Z,23.67
2023-05-21T03:01:30.007Z,23.67
2023-05-21T03:02:30.052Z,23.67
2023-05-21T03:03:30.286Z,23.66
2023-05-21T03:04:30.160Z,23.67
2023-05-21T03:05:30.210Z,23.67
2023-05-21T03:06:30.228Z,23.67
2023-05-21T03:07:30.261Z,23.67
2023-05-21T03:08:30.341Z,23.67
2023-05-21T03:09:30.370Z,23.67
2023-05-21T03:10:30.446Z,23.67
2023-05-21T03:11:30.456Z,23.67
2023-05-21T03:12:30.487Z,23.66
2023-05-21T03:13:30.569Z,23.66
2023-05-21T03:14:30.598Z,23.66
2023-05-21T03:15:30.647Z,23.66
2023-05-21T03:16:30.647Z,23.66
2023-05-21T03:17:30.665Z,23.66
2023-05-21T03:18:30.690Z,23.65
2023-05-21T03:19:30.798Z,23.66
2023-05-21T03:20:30.794Z,23.64
2023-05-21T03:21:30.813Z,23.65
2023-05-21T03:22:30.868Z,23.65
2023-05-21T03:23:30.909Z,23.65
2023-05-21T03:24:30.960Z,23.65
2023-05-21T03:25:31.009Z,23.65
2023-05-21T03:26:31.030Z,23.65
2023-05-21T03:27:31.036Z,23.64
2023-05-21T03:28:31.107Z,23.64
2023-05-21T03:29:31.137Z,23.65
2023-05-21T03:30:31.190Z,23.64
2023-05-21T03:31:31.268Z,23.64
2023-05-21T03:32:31.305Z,23.64
2023-05-21T03:33:32.224Z,23.65
2023-05-21T03:34:31.349Z,23.65
2023-05-21T03:35:31.358Z,23.64
2023-05-21T03:36:31.366Z,23.65
2023-05-21T03:37:31.413Z,23.64
2023-05-21T03:38:31.450Z,23.64
2023-05-21T03:39:31.561Z,23.65
2023-05-21T03:40:31.555Z,23.65
2023-05-21T03:41:31.615Z,23.64
2023-05-21T03:42:31.665Z,23.64
2023-05-21T03:43:31.706Z,23.64
2023-05-21T03:44:31.717Z,23.64
2023-05-21T03:45:31.786Z,23.65
2023-05-21T03:46:31.883Z,23.64
2023-05-21T03:47:31.920Z,23.64
2023-05-21T03:48:31.867Z,23.64
2023-05-21T03:49:31.936Z,23.64
2023-05-21T03:50:31.972Z,23.64
2023-05-21T03:51:32.049Z,23.65
2023-05-21T03:52:32.063Z,23.64
2023-05-21T03:53:32.110Z,23.64
2023-05-21T03:54:32.152Z,23.64
2023-05-21T03:55:32.227Z,23.64
2023-05-21T03:56:32.216Z,23.64
2023-05-21T03:57:32.313Z,23.64
2023-05-21T03:58:32.302Z,23.64
2023-05-21T03:59:32.368Z,23.64
2023-05-21T04:00:32.410Z,23.64
2023-05-21T04:01:32.446Z,23.64
2023-05-21T04:02:32.580Z,23.64
2023-05-21T04:03:32.582Z,23.63
2023-05-21T04:04:32.594Z,23.64
2023-05-21T04:05:32.629Z,23.63
2023-05-21T04:06:32.653Z,23.63
2023-05-21T04:07:32.694Z,23.64
2023-05-21T04:08:32.730Z,23.64
2023-05-21T04:09:33.907Z,23.64
2023-05-21T04:10:32.941Z,23.64
2023-05-21T04:11:32.993Z,23.64
2023-05-21T04:12:33.040Z,23.64
2023-05-21T04:13:33.060Z,23.64
2023-05-21T04:14:33.085Z,23.64
2023-05-21T04:15:33.117Z,23.64
2023-05-21T04:16:33.193Z,23.63
2023-05-21T04:17:33.235Z,23.64
2023-05-21T04:18:33.248Z,23.63
2023-05-21T04:19:33.418Z,23.63
2023-05-21T04:20:33.293Z,23.63
2023-05-21T04:21:33.297Z,23.63
2023-05-21T04:22:33.298Z,23.64
2023-05-21T04:23:33.314Z,23.64
2023-05-21T04:24:33.317Z,23.64
2023-05-21T04:25:33.401Z,23.64
2023-05-21T04:26:33.321Z,23.64
2023-05-21T04:27:33.408Z,23.64
2023-05-21T04:28:33.341Z,23.64
2023-05-21T04:29:33.383Z,23.64
2023-05-21T04:30:33.408Z,23.64
2023-05-21T04:31:33.469Z,23.64
2023-05-21T04:32:33.512Z,23.65
2023-05-21T04:33:33.470Z,23.65
2023-05-21T04:34:33.462Z,23.65
2023-05-21T04:35:33.714Z,23.65
2023-05-21T04:36:33.537Z,23.66
2023-05-21T04:37:33.575Z,23.65
2023-05-21T04:38:33.639Z,23.65
2023-05-21T04:39:33.651Z,23.65
2023-05-21T04:40:33.698Z,23.65
2023-05-21T04:41:33.656Z,23.65
2023-05-21T04:42:33.631Z,23.65
2023-05-21T04:43:33.646Z,23.65
2023-05-21T04:44:33.618Z,23.66
2023-05-21T04:45:33.927Z,23.66
2023-05-21T04:46:33.612Z,23.66
2023-05-21T04:47:33.632Z,23.66
2023-05-21T04:48:33.597Z,23.66
2023-05-21T04:49:33.567Z,23.66
2023-05-21T04:50:33.567Z,23.66
2023-05-21T04:51:33.551Z,23.66
2023-05-21T04:52:33.547Z,23.66
2023-05-21T04:53:33.569Z,23.67
2023-05-21T04:54:33.544Z,23.67
2023-05-21T04:55:33.558Z,23.67
2023-05-21T04:56:33.841Z,23.67
2023-05-21T04:57:33.844Z,23.68
2023-05-21T04:58:33.495Z,23.68
2023-05-21T04:59:33.437Z,23.68
2023-05-21T05:00:33.487Z,23.68
2023-05-21T05:01:33.464Z,23.69
2023-05-21T05:02:33.454Z,23.69
2023-05-21T05:03:33.484Z,23.69
2023-05-21T05:04:33.422Z,23.68
2023-05-21T05:05:33.404Z,23.69
2023-05-21T05:06:33.380Z,23.69
2023-05-21T05:07:33.379Z,23.70
2023-05-21T05:08:33.349Z,23.70
2023-05-21T05:09:33.373Z,23.70
2023-05-21T05:10:33.344Z,23.69
2023-05-21T05:11:33.354Z,23.70
2023-05-21T05:12:33.320Z,23.70
2023-05-21T05:13:33.308Z,23.70
2023-05-21T05:14:33.284Z,23.70
2023-05-21T05:15:33.305Z,23.71
2023-05-21T05:16:33.323Z,23.70
2023-05-21T05:17:33.259Z,23.71
2023-05-21T05:18:33.240Z,23.72
2023-05-21T05:19:33.245Z,23.71
2023-05-21T05:20:33.244Z,23.71
2023-05-21T05:21:33.266Z,23.72
2023-05-21T05:22:33.216Z,23.72
2023-05-21T05:23:33.224Z,23.72
2023-05-21T05:24:33.197Z,23.72
2023-05-21T05:25:33.195Z,23.73
2023-05-21T05:26:33.253Z,23.73
2023-05-21T05:27:33.299Z,23.73
2023-05-21T05:28:33.333Z,23.73
2023-05-21T05:29:33.381Z,23.73
2023-05-21T05:30:33.441Z,23.73
2023-05-21T05:31:33.520Z,23.73
2023-05-21T05:32:33.524Z,23.74
2023-05-21T05:33:33.569Z,23.74
2023-05-21T05:34:33.605Z,23.73
2023-05-21T05:35:33.735Z,23.74
2023-05-21T05:36:33.692Z,23.74
2023-05-21T05:37:33.707Z,23.74
2023-05-21T05:38:33.765Z,23.74
2023-05-21T05:39:33.773Z,23.74
2023-05-21T05:40:33.842Z,23.74
2023-05-21T05:41:33.917Z,23.74
2023-05-21T05:42:33.923Z,23.74
2023-05-21T05:43:33.944Z,23.74
2023-05-21T05:44:33.989Z,23.74
2023-05-21T05:45:34.176Z,23.74
2023-05-21T05:46:34.094Z,23.74
2023-05-21T05:47:34.111Z,23.75
2023-05-21T05:48:34.123Z,23.75
2023-05-21T05:49:34.182Z,23.74
2023-05-21T05:50:34.242Z,23.75
2023-05-21T05:51:34.293Z,23.75
2023-05-21T05:52:34.325Z,23.75
2023-05-21T05:53:34.377Z,23.75
2023-05-21T05:54:34.400Z,23.76
2023-05-21T05:55:34.700Z,23.76
2023-05-21T05:56:34.477Z,23.76
2023-05-21T05:57:34.548Z,23.76
2023-05-21T05:58:34.586Z,23.76
2023-05-21T05:59:34.630Z,23.76
2023-05-21T06:00:34.687Z,23.76
2023-05-21T06:01:34.685Z,23.76
2023-05-21T06:02:34.804Z,23.76
2023-05-21T06:03:34.905Z,23.76
2023-05-21T06:04:34.827Z,23.76
2023-05-21T06:05:35.035Z,23.77
2023-05-21T06:06:34.941Z,23.78
2023-05-21T06:07:34.956Z,23.78
2023-05-21T06:08:37.319Z,23.79
2023-05-21T06:09:35.019Z,23.79
2023-05-21T06:10:34.980Z,23.80
2023-05-21T06:11:35.006Z,23.81
2023-05-21T06:12:34.999Z,23.81
2023-05-21T06:13:34.962Z,23.82
2023-05-21T06:14:34.967Z,23.82
2023-05-21T06:15:35.102Z,23.83
2023-05-21T06:16:34.985Z,23.83
2023-05-21T06:17:34.947Z,23.84
2023-05-21T06:18:34.980Z,23.84
2023-05-21T06:19:34.960Z,23.85
2023-05-21T06:20:34.908Z,23.85
2023-05-21T06:21:34.922Z,23.86
2023-05-21T06:22:34.915Z,23.86
2023-05-21T06:23:34.896Z,23.87
2023-05-21T06:24:34.885Z,23.88
2023-05-21T06:25:35.087Z,23.88
2023-05-21T06:26:34.907Z,23.89
2023-05-21T06:27:34.878Z,23.90
2023-05-21T06:28:34.843Z,23.91
2023-05-21T06:29:34.838Z,23.92
2023-05-21T06:30:34.924Z,23.92
2023-05-21T06:31:34.859Z,23.93
2023-05-21T06:32:34.878Z,23.94
2023-05-21T06:33:34.901Z,23.94
2023-05-21T06:34:34.826Z,23.94
2023-05-21T06:35:34.943Z,23.94
2023-05-21T06:36:34.801Z,23.94
2023-05-21T06:37:34.813Z,23.94
2023-05-21T06:38:34.816Z,23.95
2023-05-21T06:39:34.863Z,23.96
2023-05-21T06:40:34.802Z,23.96
2023-05-21T06:41:34.776Z,23.96
2023-05-21T06:42:34.793Z,23.97
2023-05-21T06:43:34.764Z,23.98
2023-05-21T06:44:34.776Z,23.98
2023-05-21T06:45:35.019Z,23.98
2023-05-21T06:46:34.788Z,24.00
2023-05-21T06:47:34.829Z,24.01
2023-05-21T06:48:34.743Z,24.01
2023-05-21T06:49:34.729Z,24.01
2023-05-21T06:50:35.329Z,24.02
2023-05-21T06:51:34.727Z,24.02
2023-05-21T06:52:34.782Z,24.03
2023-05-21T06:53:34.723Z,24.04
2023-05-21T06:54:34.709Z,24.04
2023-05-21T06:55:34.931Z,24.06
2023-05-21T06:56:34.670Z,24.06
2023-05-21T06:57:34.682Z,24.08
2023-05-21T06:58:34.721Z,24.07
2023-05-21T06:59:34.676Z,24.07
2023-05-21T07:00:34.686Z,24.07
2023-05-21T07:01:34.677Z,24.09
2023-05-21T07:02:34.666Z,24.08
2023-05-21T07:03:34.732Z,24.09
2023-05-21T07:04:34.682Z,24.09
2023-05-21T07:05:34.887Z,24.10
2023-05-21T07:06:34.738Z,24.11
2023-05-21T07:07:34.828Z,24.12
2023-05-21T07:08:34.781Z,24.12
2023-05-21T07:09:34.867Z,24.14
2023-05-21T07:10:34.882Z,24.16
2023-05-21T07:11:34.889Z,24.16
2023-05-21T07:12:34.961Z,24.17
2023-05-21T07:13:34.925Z,24.18
2023-05-21T07:14:34.981Z,24.18
2023-05-21T07:15:35.316Z,24.19
2023-05-21T07:16:35.056Z,24.19
2023-05-21T07:17:35.130Z,24.20
2023-05-21T07:18:35.051Z,24.22
2023-05-21T07:19:35.111Z,24.23
2023-05-21T07:20:35.108Z,24.25
2023-05-21T07:21:35.101Z,24.27
2023-05-21T07:22:35.161Z,24.27
2023-05-21T07:23:35.131Z,24.28
2023-05-21T07:24:35.185Z,24.29
2023-05-21T07:25:35.346Z,24.31
2023-05-21T07:26:35.224Z,24.32
2023-05-21T07:27:35.259Z,24.33
2023-05-21T07:28:35.300Z,24.34
2023-05-21T07:29:35.321Z,24.36
2023-05-21T07:30:35.335Z,24.37
2023-05-21T07:31:35.369Z,24.38
2023-05-21T07:32:35.413Z,24.39
2023-05-21T07:33:35.404Z,24.39
2023-05-21T07:34:35.414Z,24.40
2023-05-21T07:35:35.615Z,24.40
2023-05-21T07:36:35.440Z,24.42
2023-05-21T07:37:35.497Z,24.41
2023-05-21T07:38:35.463Z,24.42
2023-05-21T07:39:35.510Z,24.43
2023-05-21T07:40:35.513Z,24.44
2023-05-21T07:41:35.559Z,24.45
2023-05-21T07:42:35.534Z,24.46
2023-05-21T07:43:35.590Z,24.45
2023-05-21T07:44:35.594Z,24.46
2023-05-21T07:45:35.824Z,24.47
2023-05-21T07:46:35.650Z,24.47
2023-05-21T07:47:35.930Z,24.48
2023-05-21T07:48:35.971Z,24.48
2023-05-21T07:49:35.855Z,24.48
2023-05-21T07:50:35.692Z,24.50
2023-05-21T07:51:35.710Z,24.51
2023-05-21T07:52:35.739Z,24.50
2023-05-21T07:53:35.738Z,24.51
2023-05-21T07:54:35.767Z,24.51
2023-05-21T07:55:36.032Z,24.51
2023-05-21T07:56:35.867Z,24.52
2023-05-21T07:57:35.802Z,24.52
2023-05-21T07:58:35.838Z,24.53
2023-05-21T07:59:35.820Z,24.52
2023-05-21T08:00:35.822Z,24.53
2023-05-21T08:01:35.872Z,24.53
2023-05-21T08:02:35.948Z,24.53
2023-05-21T08:03:36.132Z,24.54
2023-05-21T08:04:37.475Z,24.54
2023-05-21T08:05:36.067Z,24.55
2023-05-21T08:06:35.873Z,24.55
2023-05-21T08:07:35.853Z,24.55
2023-05-21T08:08:35.824Z,24.56
2023-05-21T08:09:35.880Z,24.56
2023-05-21T08:10:35.835Z,24.57
2023-05-21T08:11:36.354Z,24.57
2023-05-21T08:12:35.828Z,24.57
2023-05-21T08:13:35.801Z,24.56
2023-05-21T08:14:35.790Z,24.57
2023-05-21T08:15:35.985Z,24.55
2023-05-21T08:16:35.764Z,24.57
2023-05-21T08:17:35.777Z,24.58
2023-05-21T08:18:35.720Z,24.57
2023-05-21T08:19:35.727Z,24.58
2023-05-21T08:20:35.733Z,24.58
2023-05-21T08:21:35.692Z,24.59
2023-05-21T08:22:35.679Z,24.59
2023-05-21T08:23:35.683Z,24.60
2023-05-21T08:24:35.612Z,24.61
2023-05-21T08:25:35.909Z,24.61
2023-05-21T08:26:35.596Z,24.61
2023-05-21T08:27:35.593Z,24.62
2023-05-21T08:28:35.558Z,24.62
2023-05-21T08:29:35.558Z,24.63
2023-05-21T08:30:35.559Z,24.63
2023-05-21T08:31:35.604Z,24.63
2023-05-21T08:32:35.640Z,24.64
2023-05-21T08:33:35.493Z,24.65
2023-05-21T08:34:35.481Z,24.66
2023-05-21T08:35:35.681Z,24.67
2023-05-21T08:36:35.435Z,24.67
2023-05-21T08:37:35.424Z,24.69
2023-05-21T08:38:35.412Z,24.69
2023-05-21T08:39:35.417Z,24.70
2023-05-21T08:40:35.871Z,24.70
2023-05-21T08:41:35.366Z,24.71
2023-05-21T08:42:37.327Z,24.71
2023-05-21T08:43:35.381Z,24.72
2023-05-21T08:44:35.392Z,24.73
2023-05-21T08:45:35.581Z,24.74
2023-05-21T08:46:35.372Z,24.75
2023-05-21T08:47:35.407Z,24.75
2023-05-21T08:48:35.316Z,24.75
2023-05-21T08:49:35.372Z,24.76
2023-05-21T08:50:35.309Z,24.76
2023-05-21T08:51:35.339Z,24.75
2023-05-21T08:52:35.314Z,24.76
2023-05-21T08:53:35.353Z,24.77
2023-05-21T08:54:35.349Z,24.77
2023-05-21T08:55:35.499Z,24.77
2023-05-21T08:56:35.381Z,24.78
2023-05-21T08:57:35.420Z,24.79
2023-05-21T08:58:35.403Z,24.80
2023-05-21T08:59:35.429Z,24.79
2023-05-21T09:00:36.328Z,24.80
2023-05-21T09:01:35.559Z,24.80
2023-05-21T09:02:35.490Z,24.80
2023-05-21T09:03:35.427Z,24.81
2023-05-21T09:04:35.545Z,24.81
2023-05-21T09:05:35.632Z,24.83
2023-05-21T09:06:35.460Z,24.83
2023-05-21T09:07:35.500Z,24.84
2023-05-21T09:08:35.502Z,24.84
2023-05-21T09:09:35.569Z,24.84
2023-05-21T09:10:35.554Z,24.85
2023-05-21T09:11:35.581Z,24.85
2023-05-21T09:12:35.603Z,24.86
2023-05-21T09:13:38.751Z,24.86
2023-05-21T09:14:35.593Z,24.87
2023-05-21T09:15:35.716Z,24.88
2023-05-21T09:16:35.564Z,24.88
2023-05-21T09:17:35.552Z,24.89
2023-05-21T09:18:35.515Z,24.89
2023-05-21T09:19:35.701Z,24.90
2023-05-21T09:20:35.504Z,24.90
2023-05-21T09:21:35.504Z,24.91
2023-05-21T09:22:35.444Z,24.92
2023-05-21T09:23:35.425Z,24.93
2023-05-21T09:24:36.499Z,24.93
2023-05-21T09:25:35.634Z,24.93
2023-05-21T09:26:35.402Z,24.94
2023-05-21T09:27:35.360Z,24.95
2023-05-21T09:28:35.393Z,24.96
2023-05-21T09:29:35.316Z,24.97
2023-05-21T09:30:36.230Z,24.98
2023-05-21T09:31:35.428Z,24.99
2023-05-21T09:32:35.344Z,24.99
2023-05-21T09:33:35.350Z,25.00
2023-05-21T09:34:35.267Z,25.00
2023-05-21T09:35:36.232Z,25.02
2023-05-21T09:36:35.256Z,25.02
2023-05-21T09:37:35.253Z,25.03
2023-05-21T09:38:35.194Z,25.04
2023-05-21T09:39:35.197Z,25.05
2023-05-21T09:40:35.451Z,25.05
2023-05-21T09:41:35.249Z,25.06
2023-05-21T09:42:35.301Z,25.07
2023-05-21T09:43:35.306Z,25.08
2023-05-21T09:44:35.379Z,25.09
2023-05-21T09:45:35.563Z,25.09
2023-05-21T09:46:35.461Z,25.11
2023-05-21T09:47:35.496Z,25.11
2023-05-21T09:48:35.542Z,25.12
2023-05-21T09:49:35.481Z,25.13
2023-05-21T09:50:35.707Z,25.14
2023-05-21T09:51:35.520Z,25.14
2023-05-21T09:52:35.599Z,25.16
2023-05-21T09:53:35.647Z,25.17
2023-05-21T09:54:35.729Z,25.17
2023-05-21T09:55:35.710Z,25.18
2023-05-21T09:56:35.723Z,25.19
2023-05-21T09:57:35.759Z,25.20
2023-05-21T09:58:35.777Z,25.20
2023-05-21T09:59:35.821Z,25.21
2023-05-21T10:00:35.939Z,25.20
2023-05-21T10:01:35.939Z,25.20
2023-05-21T10:02:35.949Z,25.20
2023-05-21T10:03:35.904Z,25.21
2023-05-21T10:04:35.966Z,25.21
2023-05-21T10:05:35.995Z,25.22
2023-05-21T10:06:35.990Z,25.22
2023-05-21T10:07:36.026Z,25.21
2023-05-21T10:08:36.037Z,25.21
2023-05-21T10:09:36.089Z,25.21
2023-05-21T10:10:36.282Z,25.19
2023-05-21T10:11:36.179Z,25.19
2023-05-21T10:12:36.144Z,25.19
2023-05-21T10:13:36.172Z,25.20
2023-05-21T10:14:36.205Z,25.20
2023-05-21T10:15:36.190Z,25.19
2023-05-21T10:16:36.305Z,25.19
2023-05-21T10:17:36.267Z,25.19
2023-05-21T10:18:36.300Z,25.19
2023-05-21T10:19:36.288Z,25.19
2023-05-21T10:20:36.678Z,25.19
2023-05-21T10:21:36.355Z,25.20
2023-05-21T10:22:36.376Z,25.19
2023-05-21T10:23:36.383Z,25.21
2023-05-21T10:24:36.399Z,25.20
2023-05-21T10:25:36.434Z,25.22
2023-05-21T10:26:36.435Z,25.23
2023-05-21T10:27:36.504Z,25.23
2023-05-21T10:28:36.477Z,25.22
2023-05-21T10:29:36.571Z,25.22
2023-05-21T10:30:36.727Z,25.21
2023-05-21T10:31:36.622Z,25.21
2023-05-21T10:32:36.730Z,25.22
2023-05-21T10:33:36.660Z,25.23
2023-05-21T10:34:36.667Z,25.24
2023-05-21T10:35:36.840Z,25.24
2023-05-21T10:36:36.736Z,25.24
2023-05-21T10:37:36.773Z,25.24
2023-05-21T10:38:36.788Z,25.25
2023-05-21T10:39:36.777Z,25.25
2023-05-21T10:40:37.081Z,25.25
2023-05-21T10:41:36.857Z,25.25
2023-05-21T10:42:36.863Z,25.26
2023-05-21T10:43:36.877Z,25.27
2023-05-21T10:44:36.922Z,25.27
2023-05-21T10:45:36.969Z,25.28
2023-05-21T10:46:36.960Z,25.28
2023-05-21T10:47:37.010Z,25.28
2023-05-21T10:48:37.018Z,25.28
2023-05-21T10:49:37.014Z,25.28
2023-05-21T10:50:37.285Z,25.28
2023-05-21T10:51:37.075Z,25.28
2023-05-21T10:52:37.102Z,25.27
2023-05-21T10:53:37.103Z,25.27
2023-05-21T10:54:37.156Z,25.26
2023-05-21T10:55:37.191Z,25.26
2023-05-21T10:56:37.186Z,25.26
2023-05-21T10:57:37.223Z,25.26
2023-05-21T10:58:37.246Z,25.25
2023-05-21T10:59:37.275Z,25.25
2023-05-21T11:00:37.487Z,25.24
2023-05-21T11:01:37.418Z,25.25
2023-05-21T11:02:37.507Z,25.24
2023-05-21T11:03:37.931Z,25.25
2023-05-21T11:04:37.441Z,25.24
2023-05-21T11:05:37.452Z,25.24
2023-05-21T11:06:37.492Z,25.24
2023-05-21T11:07:37.502Z,25.24
2023-05-21T11:08:37.612Z,25.24
2023-05-21T11:09:37.572Z,25.24
2023-05-21T11:10:37.892Z,25.24
2023-05-21T11:11:37.616Z,25.23
2023-05-21T11:12:37.604Z,25.22
2023-05-21T11:13:37.662Z,25.24
2023-05-21T11:14:37.688Z,25.24
2023-05-21T11:15:37.716Z,25.24
2023-05-21T11:16:37.826Z,25.24
2023-05-21T11:17:37.771Z,25.25
2023-05-21T11:18:37.788Z,25.25
2023-05-21T11:19:38.146Z,25.24
2023-05-21T11:20:38.022Z,25.25
2023-05-21T11:21:37.880Z,25.24
2023-05-21T11:22:37.888Z,25.25
2023-05-21T11:23:37.925Z,25.25
2023-05-21T11:24:37.955Z,25.25
2023-05-21T11:25:37.941Z,25.25
2023-05-21T11:26:38.016Z,25.25
2023-05-21T11:27:38.074Z,25.24
2023-05-21T11:28:38.094Z,25.26
2023-05-21T11:29:38.080Z,25.25
2023-05-21T11:30:40.265Z,25.25
2023-05-21T11:31:38.288Z,25.25
2023-05-21T11:32:38.122Z,25.25
2023-05-21T11:33:38.033Z,25.25
2023-05-21T11:34:38.029Z,25.25
2023-05-21T11:35:38.003Z,25.25
2023-05-21T11:36:37.944Z,25.25
2023-05-21T11:37:37.934Z,25.25
2023-05-21T11:38:37.902Z,25.25
2023-05-21T11:39:37.896Z,25.25
2023-05-21T11:40:38.046Z,25.25
2023-05-21T11:41:37.877Z,25.25
2023-05-21T11:42:37.850Z,25.25
2023-05-21T11:43:37.806Z,25.25
2023-05-21T11:44:37.816Z,25.24
2023-05-21T11:45:37.770Z,25.24
2023-05-21T11:46:37.746Z,25.22
2023-05-21T11:47:37.846Z,25.22
2023-05-21T11:48:37.719Z,25.22
2023-05-21T11:49:37.710Z,25.21
2023-05-21T11:50:37.920Z,25.21
2023-05-21T11:51:37.634Z,25.19
2023-05-21T11:52:37.613Z,25.19
2023-05-21T11:53:37.591Z,25.20
2023-05-21T11:54:37.575Z,25.20
2023-05-21T11:55:37.525Z,25.19
2023-05-21T11:56:37.560Z,25.19
2023-05-21T11:57:37.511Z,25.19
2023-05-21T11:58:37.491Z,25.18
2023-05-21T11:59:37.456Z,25.17
2023-05-21T12:00:38.014Z,25.16
2023-05-21T12:01:37.418Z,25.15
2023-05-21T12:02:37.450Z,25.15
2023-05-21T12:03:37.469Z,25.15
2023-05-21T12:04:37.356Z,25.13
2023-05-21T12:05:37.339Z,25.13
2023-05-21T12:06:37.319Z,25.12
2023-05-21T12:07:37.273Z,25.12
2023-05-21T12:08:37.248Z,25.12
2023-05-21T12:09:37.219Z,25.11
2023-05-21T12:10:37.575Z,25.11
2023-05-21T12:11:37.299Z,25.10
2023-05-21T12:12:53.367Z,25.10
2023-05-21T12:13:38.312Z,25.09
2023-05-21T12:14:37.290Z,25.08
2023-05-21T12:15:37.227Z,25.08
2023-05-21T12:16:37.255Z,25.07
2023-05-21T12:17:37.230Z,25.07
2023-05-21T12:18:37.186Z,25.07
2023-05-21T12:19:37.152Z,25.06
2023-05-21T12:20:37.471Z,25.05
2023-05-21T12:21:37.120Z,25.06
2023-05-21T12:22:37.094Z,25.06
2023-05-21T12:23:37.092Z,25.07
2023-05-21T12:24:37.095Z,25.07
2023-05-21T12:25:37.125Z,25.08
2023-05-21T12:26:37.167Z,25.07
2023-05-21T12:27:37.179Z,25.07
2023-05-21T12:28:37.221Z,25.07
2023-05-21T12:29:37.258Z,25.07
2023-05-21T12:30:37.388Z,25.07
2023-05-21T12:31:37.450Z,25.07
2023-05-21T12:32:37.338Z,25.07
2023-05-21T12:33:37.389Z,25.06
2023-05-21T12:34:37.431Z,25.07
2023-05-21T12:35:37.426Z,25.07
2023-05-21T12:36:37.452Z,25.06
2023-05-21T12:37:37.506Z,25.05
2023-05-21T12:38:37.505Z,25.05
2023-05-21T12:39:37.514Z,25.06
2023-05-21T12:40:37.976Z,25.05
2023-05-21T12:41:37.584Z,25.05
2023-05-21T12:42:37.698Z,25.05
2023-05-21T12:43:37.661Z,25.05
2023-05-21T12:44:37.659Z,25.05
2023-05-21T12:45:37.699Z,25.05
2023-05-21T12:46:37.871Z,25.04
2023-05-21T12:47:37.901Z,25.04
2023-05-21T12:48:37.807Z,25.04
2023-05-21T12:49:37.840Z,25.04
2023-05-21T12:50:38.022Z,25.03
2023-05-21T12:51:37.869Z,25.02
2023-05-21T12:52:37.938Z,25.02